<?xml version="1.0" encoding="UTF-8" standalone="no" ?>
<gpx xmlns="http://www.topografix.com/GPX/1/1" xmlns:xsi="http://www.w3.org/2001/XMLSchema-instance" xsi:schemaLocation="http://www.topografix.com/GPX/1/1 http://www.topografix.com/GPX/1/1/gpx.xsd" version="1.1" creator="VisuGPX - https://www.visugpx.com">
  <metadata>
    <name>L\'étang de la Geneste</name>
    <desc><![CDATA[Départ à la gare SNCF de St Cyr, arrivée à la gare RER de Jouy en Josas.]]></desc>
  </metadata>
  <trk>
    <name><![CDATA[Tracé actuel: 22 NOV 2013 08:25]]></name>
    <trkseg>
      <trkpt lat="48.79871" lon="2.07376">
        <ele>142.89</ele>
        <time>2013-11-22T07:25:15Z</time>
      </trkpt>
      <trkpt lat="48.79868" lon="2.07375">
        <ele>145.3</ele>
        <time>2013-11-22T07:25:18Z</time>
      </trkpt>
      <trkpt lat="48.79867" lon="2.07373">
        <ele>147.22</ele>
        <time>2013-11-22T07:25:22Z</time>
      </trkpt>
      <trkpt lat="48.79866" lon="2.07364">
        <ele>149.62</ele>
        <time>2013-11-22T07:25:30Z</time>
      </trkpt>
      <trkpt lat="48.79868" lon="2.07357">
        <ele>153.47</ele>
        <time>2013-11-22T07:25:43Z</time>
      </trkpt>
      <trkpt lat="48.7987" lon="2.0735">
        <ele>155.39</ele>
        <time>2013-11-22T07:26:05Z</time>
      </trkpt>
      <trkpt lat="48.79846" lon="2.0732">
        <ele>153.47</ele>
        <time>2013-11-22T07:28:51Z</time>
      </trkpt>
      <trkpt lat="48.79838" lon="2.07336">
        <ele>151.06</ele>
        <time>2013-11-22T07:29:11Z</time>
      </trkpt>
      <trkpt lat="48.79818" lon="2.07331">
        <ele>152.99</ele>
        <time>2013-11-22T07:29:33Z</time>
      </trkpt>
      <trkpt lat="48.79806" lon="2.07334">
        <ele>152.51</ele>
        <time>2013-11-22T07:29:46Z</time>
      </trkpt>
      <trkpt lat="48.79795" lon="2.07331">
        <ele>153.47</ele>
        <time>2013-11-22T07:29:57Z</time>
      </trkpt>
      <trkpt lat="48.79779" lon="2.07328">
        <ele>153.95</ele>
        <time>2013-11-22T07:30:13Z</time>
      </trkpt>
      <trkpt lat="48.79769" lon="2.07326">
        <ele>154.43</ele>
        <time>2013-11-22T07:30:21Z</time>
      </trkpt>
      <trkpt lat="48.79747" lon="2.07316">
        <ele>154.91</ele>
        <time>2013-11-22T07:30:41Z</time>
      </trkpt>
      <trkpt lat="48.79743" lon="2.0731">
        <ele>155.39</ele>
        <time>2013-11-22T07:30:57Z</time>
      </trkpt>
      <trkpt lat="48.79739" lon="2.07306">
        <ele>155.39</ele>
        <time>2013-11-22T07:31:06Z</time>
      </trkpt>
      <trkpt lat="48.79724" lon="2.07305">
        <ele>158.27</ele>
        <time>2013-11-22T07:31:16Z</time>
      </trkpt>
      <trkpt lat="48.79695" lon="2.07297">
        <ele>161.16</ele>
        <time>2013-11-22T07:31:38Z</time>
      </trkpt>
      <trkpt lat="48.79661" lon="2.07288">
        <ele>165</ele>
        <time>2013-11-22T07:32:00Z</time>
      </trkpt>
      <trkpt lat="48.79644" lon="2.0727">
        <ele>161.64</ele>
        <time>2013-11-22T07:32:18Z</time>
      </trkpt>
      <trkpt lat="48.79639" lon="2.07268">
        <ele>160.2</ele>
        <time>2013-11-22T07:32:23Z</time>
      </trkpt>
      <trkpt lat="48.79611" lon="2.0726">
        <ele>159.72</ele>
        <time>2013-11-22T07:32:43Z</time>
      </trkpt>
      <trkpt lat="48.79588" lon="2.07249">
        <ele>159.24</ele>
        <time>2013-11-22T07:33:02Z</time>
      </trkpt>
      <trkpt lat="48.79569" lon="2.0724">
        <ele>158.75</ele>
        <time>2013-11-22T07:33:19Z</time>
      </trkpt>
      <trkpt lat="48.79538" lon="2.07235">
        <ele>158.75</ele>
        <time>2013-11-22T07:33:40Z</time>
      </trkpt>
      <trkpt lat="48.79517" lon="2.07225">
        <ele>158.27</ele>
        <time>2013-11-22T07:33:58Z</time>
      </trkpt>
      <trkpt lat="48.79485" lon="2.0721">
        <ele>157.79</ele>
        <time>2013-11-22T07:34:20Z</time>
      </trkpt>
      <trkpt lat="48.79464" lon="2.07198">
        <ele>158.27</ele>
        <time>2013-11-22T07:34:38Z</time>
      </trkpt>
      <trkpt lat="48.79439" lon="2.07186">
        <ele>158.27</ele>
        <time>2013-11-22T07:34:58Z</time>
      </trkpt>
      <trkpt lat="48.79426" lon="2.07172">
        <ele>156.83</ele>
        <time>2013-11-22T07:35:10Z</time>
      </trkpt>
      <trkpt lat="48.79404" lon="2.07172">
        <ele>155.87</ele>
        <time>2013-11-22T07:35:30Z</time>
      </trkpt>
      <trkpt lat="48.79398" lon="2.07169">
        <ele>155.87</ele>
        <time>2013-11-22T07:35:35Z</time>
      </trkpt>
      <trkpt lat="48.79369" lon="2.07162">
        <ele>157.31</ele>
        <time>2013-11-22T07:35:57Z</time>
      </trkpt>
      <trkpt lat="48.79341" lon="2.07152">
        <ele>156.83</ele>
        <time>2013-11-22T07:36:19Z</time>
      </trkpt>
      <trkpt lat="48.7932" lon="2.07145">
        <ele>156.83</ele>
        <time>2013-11-22T07:36:35Z</time>
      </trkpt>
      <trkpt lat="48.79293" lon="2.07135">
        <ele>156.83</ele>
        <time>2013-11-22T07:36:57Z</time>
      </trkpt>
      <trkpt lat="48.79265" lon="2.07124">
        <ele>157.79</ele>
        <time>2013-11-22T07:37:17Z</time>
      </trkpt>
      <trkpt lat="48.79234" lon="2.07112">
        <ele>160.2</ele>
        <time>2013-11-22T07:37:40Z</time>
      </trkpt>
      <trkpt lat="48.79204" lon="2.071">
        <ele>161.64</ele>
        <time>2013-11-22T07:38:02Z</time>
      </trkpt>
      <trkpt lat="48.79177" lon="2.07094">
        <ele>163.08</ele>
        <time>2013-11-22T07:38:23Z</time>
      </trkpt>
      <trkpt lat="48.79156" lon="2.07087">
        <ele>163.56</ele>
        <time>2013-11-22T07:38:43Z</time>
      </trkpt>
      <trkpt lat="48.79149" lon="2.0709">
        <ele>163.08</ele>
        <time>2013-11-22T07:38:57Z</time>
      </trkpt>
      <trkpt lat="48.79148" lon="2.07088">
        <ele>163.08</ele>
        <time>2013-11-22T07:38:59Z</time>
      </trkpt>
      <trkpt lat="48.79146" lon="2.07085">
        <ele>162.6</ele>
        <time>2013-11-22T07:39:01Z</time>
      </trkpt>
      <trkpt lat="48.79118" lon="2.07077">
        <ele>162.12</ele>
        <time>2013-11-22T07:39:22Z</time>
      </trkpt>
      <trkpt lat="48.79115" lon="2.07079">
        <ele>161.64</ele>
        <time>2013-11-22T07:39:25Z</time>
      </trkpt>
      <trkpt lat="48.79107" lon="2.07099">
        <ele>159.72</ele>
        <time>2013-11-22T07:39:45Z</time>
      </trkpt>
      <trkpt lat="48.79108" lon="2.07126">
        <ele>153.95</ele>
        <time>2013-11-22T07:43:05Z</time>
      </trkpt>
      <trkpt lat="48.79096" lon="2.07135">
        <ele>152.03</ele>
        <time>2013-11-22T07:43:20Z</time>
      </trkpt>
      <trkpt lat="48.79084" lon="2.0716">
        <ele>152.03</ele>
        <time>2013-11-22T07:43:40Z</time>
      </trkpt>
      <trkpt lat="48.79083" lon="2.07162">
        <ele>152.03</ele>
        <time>2013-11-22T07:43:41Z</time>
      </trkpt>
      <trkpt lat="48.79064" lon="2.07157">
        <ele>152.03</ele>
        <time>2013-11-22T07:44:04Z</time>
      </trkpt>
      <trkpt lat="48.79061" lon="2.07153">
        <ele>152.03</ele>
        <time>2013-11-22T07:44:08Z</time>
      </trkpt>
      <trkpt lat="48.79039" lon="2.07121">
        <ele>151.54</ele>
        <time>2013-11-22T07:44:31Z</time>
      </trkpt>
      <trkpt lat="48.79017" lon="2.07094">
        <ele>151.06</ele>
        <time>2013-11-22T07:44:50Z</time>
      </trkpt>
      <trkpt lat="48.78995" lon="2.07064">
        <ele>151.06</ele>
        <time>2013-11-22T07:45:11Z</time>
      </trkpt>
      <trkpt lat="48.7898" lon="2.07038">
        <ele>150.58</ele>
        <time>2013-11-22T07:45:30Z</time>
      </trkpt>
      <trkpt lat="48.78958" lon="2.07015">
        <ele>150.58</ele>
        <time>2013-11-22T07:45:50Z</time>
      </trkpt>
      <trkpt lat="48.78951" lon="2.07012">
        <ele>150.58</ele>
        <time>2013-11-22T07:45:55Z</time>
      </trkpt>
      <trkpt lat="48.78913" lon="2.06998">
        <ele>147.22</ele>
        <time>2013-11-22T07:46:16Z</time>
      </trkpt>
      <trkpt lat="48.78894" lon="2.07001">
        <ele>138.57</ele>
        <time>2013-11-22T07:46:35Z</time>
      </trkpt>
      <trkpt lat="48.78864" lon="2.07013">
        <ele>138.57</ele>
        <time>2013-11-22T07:46:54Z</time>
      </trkpt>
      <trkpt lat="48.78859" lon="2.07026">
        <ele>138.57</ele>
        <time>2013-11-22T07:47:02Z</time>
      </trkpt>
      <trkpt lat="48.78846" lon="2.07062">
        <ele>138.57</ele>
        <time>2013-11-22T07:47:23Z</time>
      </trkpt>
      <trkpt lat="48.78843" lon="2.07096">
        <ele>138.57</ele>
        <time>2013-11-22T07:47:41Z</time>
      </trkpt>
      <trkpt lat="48.7884" lon="2.0711">
        <ele>138.57</ele>
        <time>2013-11-22T07:47:49Z</time>
      </trkpt>
      <trkpt lat="48.78835" lon="2.07144">
        <ele>138.09</ele>
        <time>2013-11-22T07:48:07Z</time>
      </trkpt>
      <trkpt lat="48.78831" lon="2.07174">
        <ele>138.09</ele>
        <time>2013-11-22T07:48:23Z</time>
      </trkpt>
      <trkpt lat="48.78825" lon="2.07211">
        <ele>138.09</ele>
        <time>2013-11-22T07:48:41Z</time>
      </trkpt>
      <trkpt lat="48.78816" lon="2.07254">
        <ele>138.09</ele>
        <time>2013-11-22T07:49:02Z</time>
      </trkpt>
      <trkpt lat="48.7881" lon="2.07285">
        <ele>138.09</ele>
        <time>2013-11-22T07:49:19Z</time>
      </trkpt>
      <trkpt lat="48.78807" lon="2.07298">
        <ele>138.09</ele>
        <time>2013-11-22T07:49:27Z</time>
      </trkpt>
      <trkpt lat="48.78798" lon="2.07331">
        <ele>137.61</ele>
        <time>2013-11-22T07:49:44Z</time>
      </trkpt>
      <trkpt lat="48.78781" lon="2.0738">
        <ele>138.09</ele>
        <time>2013-11-22T07:50:04Z</time>
      </trkpt>
      <trkpt lat="48.78772" lon="2.07409">
        <ele>137.13</ele>
        <time>2013-11-22T07:50:24Z</time>
      </trkpt>
      <trkpt lat="48.78762" lon="2.07446">
        <ele>137.13</ele>
        <time>2013-11-22T07:50:46Z</time>
      </trkpt>
      <trkpt lat="48.78761" lon="2.07488">
        <ele>137.13</ele>
        <time>2013-11-22T07:51:08Z</time>
      </trkpt>
      <trkpt lat="48.78769" lon="2.07526">
        <ele>136.64</ele>
        <time>2013-11-22T07:51:31Z</time>
      </trkpt>
      <trkpt lat="48.78773" lon="2.0756">
        <ele>136.64</ele>
        <time>2013-11-22T07:51:50Z</time>
      </trkpt>
      <trkpt lat="48.78774" lon="2.07599">
        <ele>136.16</ele>
        <time>2013-11-22T07:52:12Z</time>
      </trkpt>
      <trkpt lat="48.78781" lon="2.07637">
        <ele>136.16</ele>
        <time>2013-11-22T07:52:33Z</time>
      </trkpt>
      <trkpt lat="48.78784" lon="2.07683">
        <ele>136.16</ele>
        <time>2013-11-22T07:52:53Z</time>
      </trkpt>
      <trkpt lat="48.78783" lon="2.07721">
        <ele>136.16</ele>
        <time>2013-11-22T07:53:11Z</time>
      </trkpt>
      <trkpt lat="48.78786" lon="2.07765">
        <ele>136.64</ele>
        <time>2013-11-22T07:53:32Z</time>
      </trkpt>
      <trkpt lat="48.78793" lon="2.07803">
        <ele>136.64</ele>
        <time>2013-11-22T07:53:51Z</time>
      </trkpt>
      <trkpt lat="48.78797" lon="2.07821">
        <ele>136.64</ele>
        <time>2013-11-22T07:54:03Z</time>
      </trkpt>
      <trkpt lat="48.78797" lon="2.07851">
        <ele>136.16</ele>
        <time>2013-11-22T07:54:19Z</time>
      </trkpt>
      <trkpt lat="48.78803" lon="2.07889">
        <ele>136.16</ele>
        <time>2013-11-22T07:54:39Z</time>
      </trkpt>
      <trkpt lat="48.78809" lon="2.07925">
        <ele>135.68</ele>
        <time>2013-11-22T07:55:00Z</time>
      </trkpt>
      <trkpt lat="48.78817" lon="2.07965">
        <ele>135.68</ele>
        <time>2013-11-22T07:55:18Z</time>
      </trkpt>
      <trkpt lat="48.78825" lon="2.08005">
        <ele>135.68</ele>
        <time>2013-11-22T07:55:37Z</time>
      </trkpt>
      <trkpt lat="48.78835" lon="2.08058">
        <ele>135.68</ele>
        <time>2013-11-22T07:56:00Z</time>
      </trkpt>
      <trkpt lat="48.78834" lon="2.08074">
        <ele>135.68</ele>
        <time>2013-11-22T07:56:09Z</time>
      </trkpt>
      <trkpt lat="48.78828" lon="2.08124">
        <ele>135.68</ele>
        <time>2013-11-22T07:56:32Z</time>
      </trkpt>
      <trkpt lat="48.78826" lon="2.08163">
        <ele>135.68</ele>
        <time>2013-11-22T07:56:53Z</time>
      </trkpt>
      <trkpt lat="48.78819" lon="2.08194">
        <ele>135.68</ele>
        <time>2013-11-22T07:57:13Z</time>
      </trkpt>
      <trkpt lat="48.78815" lon="2.08198">
        <ele>135.68</ele>
        <time>2013-11-22T07:57:22Z</time>
      </trkpt>
      <trkpt lat="48.788" lon="2.08202">
        <ele>136.16</ele>
        <time>2013-11-22T07:57:40Z</time>
      </trkpt>
      <trkpt lat="48.78789" lon="2.08203">
        <ele>135.68</ele>
        <time>2013-11-22T07:58:07Z</time>
      </trkpt>
      <trkpt lat="48.78785" lon="2.08205">
        <ele>135.2</ele>
        <time>2013-11-22T07:58:11Z</time>
      </trkpt>
      <trkpt lat="48.78769" lon="2.08219">
        <ele>135.2</ele>
        <time>2013-11-22T07:58:31Z</time>
      </trkpt>
      <trkpt lat="48.78757" lon="2.08219">
        <ele>134.72</ele>
        <time>2013-11-22T07:58:48Z</time>
      </trkpt>
      <trkpt lat="48.78748" lon="2.0822">
        <ele>134.72</ele>
        <time>2013-11-22T07:59:10Z</time>
      </trkpt>
      <trkpt lat="48.78731" lon="2.08223">
        <ele>134.24</ele>
        <time>2013-11-22T07:59:35Z</time>
      </trkpt>
      <trkpt lat="48.78672" lon="2.08244">
        <ele>133.76</ele>
        <time>2013-11-22T08:00:03Z</time>
      </trkpt>
      <trkpt lat="48.78639" lon="2.08262">
        <ele>133.76</ele>
        <time>2013-11-22T08:00:23Z</time>
      </trkpt>
      <trkpt lat="48.78614" lon="2.08275">
        <ele>133.76</ele>
        <time>2013-11-22T08:00:39Z</time>
      </trkpt>
      <trkpt lat="48.78573" lon="2.08284">
        <ele>133.28</ele>
        <time>2013-11-22T08:01:05Z</time>
      </trkpt>
      <trkpt lat="48.78541" lon="2.08311">
        <ele>133.76</ele>
        <time>2013-11-22T08:01:32Z</time>
      </trkpt>
      <trkpt lat="48.78513" lon="2.08322">
        <ele>130.88</ele>
        <time>2013-11-22T08:01:55Z</time>
      </trkpt>
      <trkpt lat="48.78488" lon="2.08344">
        <ele>129.92</ele>
        <time>2013-11-22T08:02:23Z</time>
      </trkpt>
      <trkpt lat="48.78438" lon="2.08356">
        <ele>126.55</ele>
        <time>2013-11-22T08:02:51Z</time>
      </trkpt>
      <trkpt lat="48.78411" lon="2.08384">
        <ele>121.74</ele>
        <time>2013-11-22T08:03:18Z</time>
      </trkpt>
      <trkpt lat="48.78393" lon="2.08413">
        <ele>121.26</ele>
        <time>2013-11-22T08:03:41Z</time>
      </trkpt>
      <trkpt lat="48.7838" lon="2.08438">
        <ele>121.74</ele>
        <time>2013-11-22T08:04:03Z</time>
      </trkpt>
      <trkpt lat="48.78364" lon="2.08471">
        <ele>121.26</ele>
        <time>2013-11-22T08:04:23Z</time>
      </trkpt>
      <trkpt lat="48.7835" lon="2.08514">
        <ele>121.26</ele>
        <time>2013-11-22T08:04:42Z</time>
      </trkpt>
      <trkpt lat="48.78335" lon="2.08561">
        <ele>125.59</ele>
        <time>2013-11-22T08:04:56Z</time>
      </trkpt>
      <trkpt lat="48.78305" lon="2.08589">
        <ele>122.22</ele>
        <time>2013-11-22T08:05:22Z</time>
      </trkpt>
      <trkpt lat="48.78277" lon="2.08605">
        <ele>119.34</ele>
        <time>2013-11-22T08:05:48Z</time>
      </trkpt>
      <trkpt lat="48.78261" lon="2.08634">
        <ele>119.34</ele>
        <time>2013-11-22T08:06:11Z</time>
      </trkpt>
      <trkpt lat="48.7826" lon="2.08682">
        <ele>119.34</ele>
        <time>2013-11-22T08:06:36Z</time>
      </trkpt>
      <trkpt lat="48.78254" lon="2.08713">
        <ele>119.34</ele>
        <time>2013-11-22T08:06:55Z</time>
      </trkpt>
      <trkpt lat="48.78244" lon="2.08761">
        <ele>119.34</ele>
        <time>2013-11-22T08:07:19Z</time>
      </trkpt>
      <trkpt lat="48.78246" lon="2.08795">
        <ele>119.34</ele>
        <time>2013-11-22T08:07:45Z</time>
      </trkpt>
      <trkpt lat="48.7824" lon="2.08844">
        <ele>119.34</ele>
        <time>2013-11-22T08:08:07Z</time>
      </trkpt>
      <trkpt lat="48.78238" lon="2.08858">
        <ele>119.34</ele>
        <time>2013-11-22T08:08:12Z</time>
      </trkpt>
      <trkpt lat="48.78232" lon="2.08908">
        <ele>119.34</ele>
        <time>2013-11-22T08:08:31Z</time>
      </trkpt>
      <trkpt lat="48.78231" lon="2.08946">
        <ele>119.34</ele>
        <time>2013-11-22T08:08:51Z</time>
      </trkpt>
      <trkpt lat="48.7822" lon="2.08986">
        <ele>118.86</ele>
        <time>2013-11-22T08:09:12Z</time>
      </trkpt>
      <trkpt lat="48.78201" lon="2.09028">
        <ele>118.86</ele>
        <time>2013-11-22T08:09:37Z</time>
      </trkpt>
      <trkpt lat="48.78189" lon="2.09046">
        <ele>118.86</ele>
        <time>2013-11-22T08:09:49Z</time>
      </trkpt>
      <trkpt lat="48.78161" lon="2.09077">
        <ele>118.86</ele>
        <time>2013-11-22T08:10:13Z</time>
      </trkpt>
      <trkpt lat="48.78131" lon="2.09095">
        <ele>118.38</ele>
        <time>2013-11-22T08:10:37Z</time>
      </trkpt>
      <trkpt lat="48.78107" lon="2.09134">
        <ele>119.82</ele>
        <time>2013-11-22T08:10:58Z</time>
      </trkpt>
      <trkpt lat="48.78085" lon="2.09156">
        <ele>116.94</ele>
        <time>2013-11-22T08:11:20Z</time>
      </trkpt>
      <trkpt lat="48.78075" lon="2.09191">
        <ele>116.94</ele>
        <time>2013-11-22T08:11:43Z</time>
      </trkpt>
      <trkpt lat="48.78066" lon="2.09237">
        <ele>116.94</ele>
        <time>2013-11-22T08:12:08Z</time>
      </trkpt>
      <trkpt lat="48.78061" lon="2.09276">
        <ele>116.46</ele>
        <time>2013-11-22T08:12:30Z</time>
      </trkpt>
      <trkpt lat="48.78057" lon="2.09304">
        <ele>116.46</ele>
        <time>2013-11-22T08:12:45Z</time>
      </trkpt>
      <trkpt lat="48.78056" lon="2.09357">
        <ele>116.46</ele>
        <time>2013-11-22T08:13:10Z</time>
      </trkpt>
      <trkpt lat="48.78047" lon="2.09415">
        <ele>113.57</ele>
        <time>2013-11-22T08:13:31Z</time>
      </trkpt>
      <trkpt lat="48.78047" lon="2.09453">
        <ele>112.13</ele>
        <time>2013-11-22T08:13:53Z</time>
      </trkpt>
      <trkpt lat="48.78049" lon="2.0949">
        <ele>111.65</ele>
        <time>2013-11-22T08:14:13Z</time>
      </trkpt>
      <trkpt lat="48.7805" lon="2.09536">
        <ele>106.36</ele>
        <time>2013-11-22T08:14:35Z</time>
      </trkpt>
      <trkpt lat="48.78047" lon="2.09563">
        <ele>103.96</ele>
        <time>2013-11-22T08:14:50Z</time>
      </trkpt>
      <trkpt lat="48.78042" lon="2.09574">
        <ele>102.04</ele>
        <time>2013-11-22T08:15:07Z</time>
      </trkpt>
      <trkpt lat="48.78044" lon="2.09581">
        <ele>101.56</ele>
        <time>2013-11-22T08:15:33Z</time>
      </trkpt>
      <trkpt lat="48.78044" lon="2.0964">
        <ele>102.04</ele>
        <time>2013-11-22T08:16:02Z</time>
      </trkpt>
      <trkpt lat="48.7806" lon="2.09685">
        <ele>102.52</ele>
        <time>2013-11-22T08:16:22Z</time>
      </trkpt>
      <trkpt lat="48.78072" lon="2.09721">
        <ele>102.52</ele>
        <time>2013-11-22T08:16:43Z</time>
      </trkpt>
      <trkpt lat="48.78072" lon="2.09759">
        <ele>103</ele>
        <time>2013-11-22T08:17:03Z</time>
      </trkpt>
      <trkpt lat="48.78074" lon="2.09794">
        <ele>102.52</ele>
        <time>2013-11-22T08:17:24Z</time>
      </trkpt>
      <trkpt lat="48.78067" lon="2.09836">
        <ele>102.52</ele>
        <time>2013-11-22T08:17:41Z</time>
      </trkpt>
      <trkpt lat="48.78057" lon="2.0986">
        <ele>102.52</ele>
        <time>2013-11-22T08:17:59Z</time>
      </trkpt>
      <trkpt lat="48.7804" lon="2.09882">
        <ele>103.48</ele>
        <time>2013-11-22T08:18:17Z</time>
      </trkpt>
      <trkpt lat="48.78024" lon="2.09909">
        <ele>101.56</ele>
        <time>2013-11-22T08:18:37Z</time>
      </trkpt>
      <trkpt lat="48.78008" lon="2.09926">
        <ele>100.6</ele>
        <time>2013-11-22T08:18:58Z</time>
      </trkpt>
      <trkpt lat="48.77979" lon="2.09924">
        <ele>102.52</ele>
        <time>2013-11-22T08:19:20Z</time>
      </trkpt>
      <trkpt lat="48.77948" lon="2.09909">
        <ele>104.44</ele>
        <time>2013-11-22T08:19:43Z</time>
      </trkpt>
      <trkpt lat="48.77924" lon="2.09895">
        <ele>102.52</ele>
        <time>2013-11-22T08:19:54Z</time>
      </trkpt>
      <trkpt lat="48.77899" lon="2.09877">
        <ele>102.52</ele>
        <time>2013-11-22T08:20:09Z</time>
      </trkpt>
      <trkpt lat="48.77875" lon="2.09872">
        <ele>101.56</ele>
        <time>2013-11-22T08:20:27Z</time>
      </trkpt>
      <trkpt lat="48.77853" lon="2.09887">
        <ele>99.63</ele>
        <time>2013-11-22T08:20:47Z</time>
      </trkpt>
      <trkpt lat="48.77843" lon="2.09914">
        <ele>93.87</ele>
        <time>2013-11-22T08:21:03Z</time>
      </trkpt>
      <trkpt lat="48.77841" lon="2.09918">
        <ele>92.9</ele>
        <time>2013-11-22T08:21:05Z</time>
      </trkpt>
      <trkpt lat="48.77828" lon="2.09943">
        <ele>92.9</ele>
        <time>2013-11-22T08:21:21Z</time>
      </trkpt>
      <trkpt lat="48.77824" lon="2.09952">
        <ele>93.87</ele>
        <time>2013-11-22T08:21:27Z</time>
      </trkpt>
      <trkpt lat="48.77823" lon="2.09977">
        <ele>95.31</ele>
        <time>2013-11-22T08:21:37Z</time>
      </trkpt>
      <trkpt lat="48.77821" lon="2.10009">
        <ele>94.35</ele>
        <time>2013-11-22T08:21:53Z</time>
      </trkpt>
      <trkpt lat="48.77807" lon="2.10027">
        <ele>94.35</ele>
        <time>2013-11-22T08:22:06Z</time>
      </trkpt>
      <trkpt lat="48.77797" lon="2.1003">
        <ele>94.35</ele>
        <time>2013-11-22T08:22:15Z</time>
      </trkpt>
      <trkpt lat="48.7778" lon="2.10024">
        <ele>93.39</ele>
        <time>2013-11-22T08:22:32Z</time>
      </trkpt>
      <trkpt lat="48.77777" lon="2.10023">
        <ele>93.39</ele>
        <time>2013-11-22T08:22:35Z</time>
      </trkpt>
      <trkpt lat="48.77756" lon="2.1002">
        <ele>92.9</ele>
        <time>2013-11-22T08:22:48Z</time>
      </trkpt>
      <trkpt lat="48.77752" lon="2.10021">
        <ele>92.9</ele>
        <time>2013-11-22T08:22:51Z</time>
      </trkpt>
      <trkpt lat="48.77731" lon="2.10022">
        <ele>91.94</ele>
        <time>2013-11-22T08:23:09Z</time>
      </trkpt>
      <trkpt lat="48.77718" lon="2.10023">
        <ele>91.46</ele>
        <time>2013-11-22T08:23:18Z</time>
      </trkpt>
      <trkpt lat="48.77711" lon="2.10023">
        <ele>91.94</ele>
        <time>2013-11-22T08:23:22Z</time>
      </trkpt>
      <trkpt lat="48.77689" lon="2.10024">
        <ele>93.87</ele>
        <time>2013-11-22T08:23:36Z</time>
      </trkpt>
      <trkpt lat="48.77662" lon="2.10031">
        <ele>94.35</ele>
        <time>2013-11-22T08:23:51Z</time>
      </trkpt>
      <trkpt lat="48.77653" lon="2.10036">
        <ele>94.83</ele>
        <time>2013-11-22T08:23:56Z</time>
      </trkpt>
      <trkpt lat="48.77644" lon="2.10043">
        <ele>95.79</ele>
        <time>2013-11-22T08:24:03Z</time>
      </trkpt>
      <trkpt lat="48.77635" lon="2.10065">
        <ele>99.15</ele>
        <time>2013-11-22T08:24:20Z</time>
      </trkpt>
      <trkpt lat="48.77633" lon="2.10099">
        <ele>100.11</ele>
        <time>2013-11-22T08:24:35Z</time>
      </trkpt>
      <trkpt lat="48.7763" lon="2.10124">
        <ele>100.11</ele>
        <time>2013-11-22T08:24:48Z</time>
      </trkpt>
      <trkpt lat="48.7763" lon="2.10157">
        <ele>100.11</ele>
        <time>2013-11-22T08:25:02Z</time>
      </trkpt>
      <trkpt lat="48.77628" lon="2.10171">
        <ele>100.6</ele>
        <time>2013-11-22T08:25:11Z</time>
      </trkpt>
      <trkpt lat="48.7763" lon="2.1019">
        <ele>101.08</ele>
        <time>2013-11-22T08:25:18Z</time>
      </trkpt>
      <trkpt lat="48.77628" lon="2.1022">
        <ele>101.56</ele>
        <time>2013-11-22T08:25:33Z</time>
      </trkpt>
      <trkpt lat="48.7763" lon="2.10249">
        <ele>101.56</ele>
        <time>2013-11-22T08:25:46Z</time>
      </trkpt>
      <trkpt lat="48.77633" lon="2.10281">
        <ele>102.04</ele>
        <time>2013-11-22T08:25:59Z</time>
      </trkpt>
      <trkpt lat="48.77633" lon="2.10301">
        <ele>101.56</ele>
        <time>2013-11-22T08:26:12Z</time>
      </trkpt>
      <trkpt lat="48.77635" lon="2.10305">
        <ele>101.56</ele>
        <time>2013-11-22T08:26:14Z</time>
      </trkpt>
      <trkpt lat="48.77635" lon="2.10313">
        <ele>101.56</ele>
        <time>2013-11-22T08:26:18Z</time>
      </trkpt>
      <trkpt lat="48.77633" lon="2.10341">
        <ele>101.56</ele>
        <time>2013-11-22T08:26:33Z</time>
      </trkpt>
      <trkpt lat="48.77634" lon="2.10376">
        <ele>101.56</ele>
        <time>2013-11-22T08:26:46Z</time>
      </trkpt>
      <trkpt lat="48.7763" lon="2.104">
        <ele>101.08</ele>
        <time>2013-11-22T08:27:00Z</time>
      </trkpt>
      <trkpt lat="48.7763" lon="2.10408">
        <ele>101.08</ele>
        <time>2013-11-22T08:27:03Z</time>
      </trkpt>
      <trkpt lat="48.77627" lon="2.10431">
        <ele>101.08</ele>
        <time>2013-11-22T08:27:17Z</time>
      </trkpt>
      <trkpt lat="48.77625" lon="2.10454">
        <ele>101.08</ele>
        <time>2013-11-22T08:27:25Z</time>
      </trkpt>
      <trkpt lat="48.77622" lon="2.1047">
        <ele>100.11</ele>
        <time>2013-11-22T08:27:36Z</time>
      </trkpt>
      <trkpt lat="48.77622" lon="2.10491">
        <ele>100.11</ele>
        <time>2013-11-22T08:27:44Z</time>
      </trkpt>
      <trkpt lat="48.77617" lon="2.10519">
        <ele>100.11</ele>
        <time>2013-11-22T08:27:59Z</time>
      </trkpt>
      <trkpt lat="48.77606" lon="2.10543">
        <ele>100.11</ele>
        <time>2013-11-22T08:28:12Z</time>
      </trkpt>
      <trkpt lat="48.77605" lon="2.10545">
        <ele>100.11</ele>
        <time>2013-11-22T08:28:14Z</time>
      </trkpt>
      <trkpt lat="48.77603" lon="2.10554">
        <ele>100.11</ele>
        <time>2013-11-22T08:28:18Z</time>
      </trkpt>
      <trkpt lat="48.7759" lon="2.10574">
        <ele>99.15</ele>
        <time>2013-11-22T08:28:32Z</time>
      </trkpt>
      <trkpt lat="48.77586" lon="2.1059">
        <ele>99.15</ele>
        <time>2013-11-22T08:28:54Z</time>
      </trkpt>
      <trkpt lat="48.77564" lon="2.10619">
        <ele>98.67</ele>
        <time>2013-11-22T08:29:18Z</time>
      </trkpt>
      <trkpt lat="48.77548" lon="2.10688">
        <ele>99.15</ele>
        <time>2013-11-22T08:29:45Z</time>
      </trkpt>
      <trkpt lat="48.77548" lon="2.10694">
        <ele>98.67</ele>
        <time>2013-11-22T08:29:48Z</time>
      </trkpt>
      <trkpt lat="48.77553" lon="2.1072">
        <ele>98.19</ele>
        <time>2013-11-22T08:30:02Z</time>
      </trkpt>
      <trkpt lat="48.77563" lon="2.10754">
        <ele>98.19</ele>
        <time>2013-11-22T08:30:26Z</time>
      </trkpt>
      <trkpt lat="48.77584" lon="2.10785">
        <ele>98.19</ele>
        <time>2013-11-22T08:30:50Z</time>
      </trkpt>
      <trkpt lat="48.77582" lon="2.108">
        <ele>98.19</ele>
        <time>2013-11-22T08:31:13Z</time>
      </trkpt>
      <trkpt lat="48.77582" lon="2.10799">
        <ele>98.19</ele>
        <time>2013-11-22T08:31:14Z</time>
      </trkpt>
      <trkpt lat="48.77578" lon="2.10816">
        <ele>98.19</ele>
        <time>2013-11-22T08:31:29Z</time>
      </trkpt>
      <trkpt lat="48.77566" lon="2.10833">
        <ele>98.19</ele>
        <time>2013-11-22T08:31:31Z</time>
      </trkpt>
      <trkpt lat="48.77609" lon="2.10871">
        <ele>97.71</ele>
        <time>2013-11-22T08:31:35Z</time>
      </trkpt>
      <trkpt lat="48.77621" lon="2.10906">
        <ele>98.19</ele>
        <time>2013-11-22T08:31:54Z</time>
      </trkpt>
      <trkpt lat="48.77635" lon="2.1094">
        <ele>99.15</ele>
        <time>2013-11-22T08:32:14Z</time>
      </trkpt>
      <trkpt lat="48.77646" lon="2.10966">
        <ele>99.63</ele>
        <time>2013-11-22T08:32:31Z</time>
      </trkpt>
      <trkpt lat="48.77656" lon="2.10987">
        <ele>99.63</ele>
        <time>2013-11-22T08:32:42Z</time>
      </trkpt>
      <trkpt lat="48.77664" lon="2.11009">
        <ele>99.63</ele>
        <time>2013-11-22T08:32:56Z</time>
      </trkpt>
      <trkpt lat="48.77678" lon="2.11042">
        <ele>99.15</ele>
        <time>2013-11-22T08:33:14Z</time>
      </trkpt>
      <trkpt lat="48.77688" lon="2.11073">
        <ele>98.67</ele>
        <time>2013-11-22T08:33:28Z</time>
      </trkpt>
      <trkpt lat="48.77694" lon="2.11103">
        <ele>98.19</ele>
        <time>2013-11-22T08:33:43Z</time>
      </trkpt>
      <trkpt lat="48.777" lon="2.11127">
        <ele>98.19</ele>
        <time>2013-11-22T08:33:57Z</time>
      </trkpt>
      <trkpt lat="48.77702" lon="2.11133">
        <ele>98.67</ele>
        <time>2013-11-22T08:34:00Z</time>
      </trkpt>
      <trkpt lat="48.77704" lon="2.11143">
        <ele>98.67</ele>
        <time>2013-11-22T08:34:04Z</time>
      </trkpt>
      <trkpt lat="48.7771" lon="2.1117">
        <ele>98.67</ele>
        <time>2013-11-22T08:34:16Z</time>
      </trkpt>
      <trkpt lat="48.77714" lon="2.11193">
        <ele>98.19</ele>
        <time>2013-11-22T08:34:28Z</time>
      </trkpt>
      <trkpt lat="48.77717" lon="2.11218">
        <ele>96.27</ele>
        <time>2013-11-22T08:34:42Z</time>
      </trkpt>
      <trkpt lat="48.77715" lon="2.11247">
        <ele>96.27</ele>
        <time>2013-11-22T08:34:58Z</time>
      </trkpt>
      <trkpt lat="48.77715" lon="2.11251">
        <ele>96.27</ele>
        <time>2013-11-22T08:35:02Z</time>
      </trkpt>
      <trkpt lat="48.77718" lon="2.11261">
        <ele>96.27</ele>
        <time>2013-11-22T08:35:06Z</time>
      </trkpt>
      <trkpt lat="48.7772" lon="2.11276">
        <ele>96.27</ele>
        <time>2013-11-22T08:35:12Z</time>
      </trkpt>
      <trkpt lat="48.77715" lon="2.113">
        <ele>97.23</ele>
        <time>2013-11-22T08:35:23Z</time>
      </trkpt>
      <trkpt lat="48.77715" lon="2.1131">
        <ele>97.23</ele>
        <time>2013-11-22T08:35:27Z</time>
      </trkpt>
      <trkpt lat="48.77714" lon="2.11332">
        <ele>96.75</ele>
        <time>2013-11-22T08:35:35Z</time>
      </trkpt>
      <trkpt lat="48.77712" lon="2.11339">
        <ele>96.75</ele>
        <time>2013-11-22T08:35:38Z</time>
      </trkpt>
      <trkpt lat="48.77712" lon="2.11358">
        <ele>96.27</ele>
        <time>2013-11-22T08:35:52Z</time>
      </trkpt>
      <trkpt lat="48.77712" lon="2.1136">
        <ele>96.27</ele>
        <time>2013-11-22T08:35:53Z</time>
      </trkpt>
      <trkpt lat="48.77714" lon="2.11371">
        <ele>96.27</ele>
        <time>2013-11-22T08:35:57Z</time>
      </trkpt>
      <trkpt lat="48.77714" lon="2.11385">
        <ele>95.79</ele>
        <time>2013-11-22T08:36:06Z</time>
      </trkpt>
      <trkpt lat="48.77712" lon="2.11395">
        <ele>95.79</ele>
        <time>2013-11-22T08:36:10Z</time>
      </trkpt>
      <trkpt lat="48.77704" lon="2.11419">
        <ele>95.79</ele>
        <time>2013-11-22T08:36:24Z</time>
      </trkpt>
      <trkpt lat="48.777" lon="2.11434">
        <ele>95.79</ele>
        <time>2013-11-22T08:36:34Z</time>
      </trkpt>
      <trkpt lat="48.77701" lon="2.11445">
        <ele>95.79</ele>
        <time>2013-11-22T08:36:38Z</time>
      </trkpt>
      <trkpt lat="48.77696" lon="2.11483">
        <ele>96.27</ele>
        <time>2013-11-22T08:36:54Z</time>
      </trkpt>
      <trkpt lat="48.77699" lon="2.1151">
        <ele>95.79</ele>
        <time>2013-11-22T08:37:10Z</time>
      </trkpt>
      <trkpt lat="48.77705" lon="2.11541">
        <ele>95.31</ele>
        <time>2013-11-22T08:37:28Z</time>
      </trkpt>
      <trkpt lat="48.77716" lon="2.11576">
        <ele>96.27</ele>
        <time>2013-11-22T08:37:46Z</time>
      </trkpt>
      <trkpt lat="48.77728" lon="2.11613">
        <ele>95.79</ele>
        <time>2013-11-22T08:38:02Z</time>
      </trkpt>
      <trkpt lat="48.77736" lon="2.11629">
        <ele>95.79</ele>
        <time>2013-11-22T08:38:13Z</time>
      </trkpt>
      <trkpt lat="48.77739" lon="2.11639">
        <ele>95.79</ele>
        <time>2013-11-22T08:38:17Z</time>
      </trkpt>
      <trkpt lat="48.77742" lon="2.11661">
        <ele>95.79</ele>
        <time>2013-11-22T08:38:30Z</time>
      </trkpt>
      <trkpt lat="48.77742" lon="2.11687">
        <ele>96.27</ele>
        <time>2013-11-22T08:38:44Z</time>
      </trkpt>
      <trkpt lat="48.77742" lon="2.11715">
        <ele>95.31</ele>
        <time>2013-11-22T08:39:01Z</time>
      </trkpt>
      <trkpt lat="48.77745" lon="2.11727">
        <ele>95.31</ele>
        <time>2013-11-22T08:39:15Z</time>
      </trkpt>
      <trkpt lat="48.77747" lon="2.11733">
        <ele>95.31</ele>
        <time>2013-11-22T08:39:38Z</time>
      </trkpt>
      <trkpt lat="48.7774" lon="2.11751">
        <ele>95.31</ele>
        <time>2013-11-22T08:39:57Z</time>
      </trkpt>
      <trkpt lat="48.77737" lon="2.11752">
        <ele>95.31</ele>
        <time>2013-11-22T08:39:59Z</time>
      </trkpt>
      <trkpt lat="48.77712" lon="2.1177">
        <ele>94.83</ele>
        <time>2013-11-22T08:40:19Z</time>
      </trkpt>
      <trkpt lat="48.77705" lon="2.11782">
        <ele>95.31</ele>
        <time>2013-11-22T08:40:38Z</time>
      </trkpt>
      <trkpt lat="48.77694" lon="2.11783">
        <ele>96.27</ele>
        <time>2013-11-22T08:40:54Z</time>
      </trkpt>
      <trkpt lat="48.77691" lon="2.11775">
        <ele>96.27</ele>
        <time>2013-11-22T08:41:04Z</time>
      </trkpt>
      <trkpt lat="48.77685" lon="2.11775">
        <ele>99.63</ele>
        <time>2013-11-22T08:41:22Z</time>
      </trkpt>
      <trkpt lat="48.77685" lon="2.11786">
        <ele>98.67</ele>
        <time>2013-11-22T08:41:41Z</time>
      </trkpt>
      <trkpt lat="48.77687" lon="2.11793">
        <ele>98.67</ele>
        <time>2013-11-22T08:42:02Z</time>
      </trkpt>
      <trkpt lat="48.77688" lon="2.11799">
        <ele>98.67</ele>
        <time>2013-11-22T08:42:30Z</time>
      </trkpt>
      <trkpt lat="48.77688" lon="2.118">
        <ele>98.67</ele>
        <time>2013-11-22T08:42:32Z</time>
      </trkpt>
      <trkpt lat="48.77696" lon="2.11833">
        <ele>98.67</ele>
        <time>2013-11-22T08:42:50Z</time>
      </trkpt>
      <trkpt lat="48.77694" lon="2.11863">
        <ele>98.67</ele>
        <time>2013-11-22T08:43:08Z</time>
      </trkpt>
      <trkpt lat="48.77691" lon="2.11901">
        <ele>98.67</ele>
        <time>2013-11-22T08:43:27Z</time>
      </trkpt>
      <trkpt lat="48.77687" lon="2.1195">
        <ele>91.94</ele>
        <time>2013-11-22T08:43:47Z</time>
      </trkpt>
      <trkpt lat="48.77682" lon="2.11977">
        <ele>89.06</ele>
        <time>2013-11-22T08:44:07Z</time>
      </trkpt>
      <trkpt lat="48.77677" lon="2.12006">
        <ele>90.5</ele>
        <time>2013-11-22T08:44:24Z</time>
      </trkpt>
      <trkpt lat="48.77671" lon="2.12042">
        <ele>91.46</ele>
        <time>2013-11-22T08:44:45Z</time>
      </trkpt>
      <trkpt lat="48.77662" lon="2.12078">
        <ele>91.46</ele>
        <time>2013-11-22T08:45:06Z</time>
      </trkpt>
      <trkpt lat="48.77659" lon="2.1209">
        <ele>92.42</ele>
        <time>2013-11-22T08:45:10Z</time>
      </trkpt>
      <trkpt lat="48.77645" lon="2.12137">
        <ele>90.98</ele>
        <time>2013-11-22T08:45:35Z</time>
      </trkpt>
      <trkpt lat="48.77633" lon="2.12177">
        <ele>90.02</ele>
        <time>2013-11-22T08:45:56Z</time>
      </trkpt>
      <trkpt lat="48.77621" lon="2.12211">
        <ele>90.98</ele>
        <time>2013-11-22T08:46:16Z</time>
      </trkpt>
      <trkpt lat="48.77616" lon="2.12242">
        <ele>92.42</ele>
        <time>2013-11-22T08:46:37Z</time>
      </trkpt>
      <trkpt lat="48.77614" lon="2.12264">
        <ele>91.94</ele>
        <time>2013-11-22T08:46:56Z</time>
      </trkpt>
      <trkpt lat="48.77611" lon="2.12267">
        <ele>98.67</ele>
        <time>2013-11-22T08:47:19Z</time>
      </trkpt>
      <trkpt lat="48.77591" lon="2.12276">
        <ele>98.19</ele>
        <time>2013-11-22T08:47:39Z</time>
      </trkpt>
      <trkpt lat="48.77586" lon="2.12283">
        <ele>98.19</ele>
        <time>2013-11-22T08:47:48Z</time>
      </trkpt>
      <trkpt lat="48.77581" lon="2.12288">
        <ele>98.19</ele>
        <time>2013-11-22T08:47:53Z</time>
      </trkpt>
      <trkpt lat="48.77555" lon="2.12322">
        <ele>97.23</ele>
        <time>2013-11-22T08:48:14Z</time>
      </trkpt>
      <trkpt lat="48.77551" lon="2.12357">
        <ele>96.27</ele>
        <time>2013-11-22T08:48:33Z</time>
      </trkpt>
      <trkpt lat="48.77547" lon="2.12374">
        <ele>97.71</ele>
        <time>2013-11-22T08:48:54Z</time>
      </trkpt>
      <trkpt lat="48.77543" lon="2.12393">
        <ele>96.75</ele>
        <time>2013-11-22T08:49:13Z</time>
      </trkpt>
      <trkpt lat="48.77526" lon="2.12437">
        <ele>95.31</ele>
        <time>2013-11-22T08:49:35Z</time>
      </trkpt>
      <trkpt lat="48.77522" lon="2.12466">
        <ele>94.83</ele>
        <time>2013-11-22T08:49:51Z</time>
      </trkpt>
      <trkpt lat="48.77508" lon="2.12493">
        <ele>95.31</ele>
        <time>2013-11-22T08:50:11Z</time>
      </trkpt>
      <trkpt lat="48.77498" lon="2.12536">
        <ele>95.31</ele>
        <time>2013-11-22T08:50:32Z</time>
      </trkpt>
      <trkpt lat="48.77497" lon="2.12573">
        <ele>94.83</ele>
        <time>2013-11-22T08:50:54Z</time>
      </trkpt>
      <trkpt lat="48.77494" lon="2.1261">
        <ele>93.87</ele>
        <time>2013-11-22T08:51:11Z</time>
      </trkpt>
      <trkpt lat="48.77494" lon="2.12653">
        <ele>95.79</ele>
        <time>2013-11-22T08:51:33Z</time>
      </trkpt>
      <trkpt lat="48.77494" lon="2.12655">
        <ele>101.56</ele>
        <time>2013-11-22T08:54:00Z</time>
      </trkpt>
      <trkpt lat="48.77496" lon="2.1268">
        <ele>100.6</ele>
        <time>2013-11-22T08:54:16Z</time>
      </trkpt>
      <trkpt lat="48.77494" lon="2.12699">
        <ele>100.6</ele>
        <time>2013-11-22T08:54:26Z</time>
      </trkpt>
      <trkpt lat="48.77482" lon="2.12723">
        <ele>98.67</ele>
        <time>2013-11-22T08:54:45Z</time>
      </trkpt>
      <trkpt lat="48.77483" lon="2.12743">
        <ele>97.71</ele>
        <time>2013-11-22T08:55:03Z</time>
      </trkpt>
      <trkpt lat="48.77488" lon="2.12784">
        <ele>96.75</ele>
        <time>2013-11-22T08:55:22Z</time>
      </trkpt>
      <trkpt lat="48.77483" lon="2.12826">
        <ele>96.27</ele>
        <time>2013-11-22T08:55:44Z</time>
      </trkpt>
      <trkpt lat="48.77486" lon="2.12852">
        <ele>98.19</ele>
        <time>2013-11-22T08:56:04Z</time>
      </trkpt>
      <trkpt lat="48.77502" lon="2.12875">
        <ele>97.71</ele>
        <time>2013-11-22T08:56:23Z</time>
      </trkpt>
      <trkpt lat="48.77521" lon="2.12908">
        <ele>100.11</ele>
        <time>2013-11-22T08:58:01Z</time>
      </trkpt>
      <trkpt lat="48.77515" lon="2.12917">
        <ele>99.15</ele>
        <time>2013-11-22T08:58:11Z</time>
      </trkpt>
      <trkpt lat="48.77506" lon="2.12936">
        <ele>98.67</ele>
        <time>2013-11-22T08:58:25Z</time>
      </trkpt>
      <trkpt lat="48.77501" lon="2.12963">
        <ele>98.67</ele>
        <time>2013-11-22T08:58:38Z</time>
      </trkpt>
      <trkpt lat="48.77488" lon="2.13002">
        <ele>98.19</ele>
        <time>2013-11-22T08:58:58Z</time>
      </trkpt>
      <trkpt lat="48.77482" lon="2.13044">
        <ele>97.23</ele>
        <time>2013-11-22T08:59:20Z</time>
      </trkpt>
      <trkpt lat="48.77472" lon="2.13074">
        <ele>95.31</ele>
        <time>2013-11-22T08:59:38Z</time>
      </trkpt>
      <trkpt lat="48.77464" lon="2.13085">
        <ele>94.83</ele>
        <time>2013-11-22T08:59:45Z</time>
      </trkpt>
      <trkpt lat="48.7745" lon="2.13094">
        <ele>92.9</ele>
        <time>2013-11-22T08:59:57Z</time>
      </trkpt>
      <trkpt lat="48.77431" lon="2.13098">
        <ele>97.23</ele>
        <time>2013-11-22T09:00:06Z</time>
      </trkpt>
      <trkpt lat="48.77417" lon="2.13101">
        <ele>101.56</ele>
        <time>2013-11-22T09:00:17Z</time>
      </trkpt>
      <trkpt lat="48.7741" lon="2.13102">
        <ele>101.56</ele>
        <time>2013-11-22T09:00:23Z</time>
      </trkpt>
      <trkpt lat="48.77407" lon="2.13101">
        <ele>101.56</ele>
        <time>2013-11-22T09:00:25Z</time>
      </trkpt>
      <trkpt lat="48.77396" lon="2.13098">
        <ele>101.08</ele>
        <time>2013-11-22T09:00:40Z</time>
      </trkpt>
      <trkpt lat="48.77383" lon="2.13113">
        <ele>102.04</ele>
        <time>2013-11-22T09:00:53Z</time>
      </trkpt>
      <trkpt lat="48.77381" lon="2.13118">
        <ele>102.04</ele>
        <time>2013-11-22T09:00:55Z</time>
      </trkpt>
      <trkpt lat="48.77373" lon="2.13123">
        <ele>102.04</ele>
        <time>2013-11-22T09:01:00Z</time>
      </trkpt>
      <trkpt lat="48.77354" lon="2.13141">
        <ele>102.04</ele>
        <time>2013-11-22T09:01:16Z</time>
      </trkpt>
      <trkpt lat="48.77352" lon="2.13153">
        <ele>102.52</ele>
        <time>2013-11-22T09:01:24Z</time>
      </trkpt>
      <trkpt lat="48.77344" lon="2.13171">
        <ele>103</ele>
        <time>2013-11-22T09:01:32Z</time>
      </trkpt>
      <trkpt lat="48.77334" lon="2.13181">
        <ele>102.52</ele>
        <time>2013-11-22T09:01:39Z</time>
      </trkpt>
      <trkpt lat="48.77324" lon="2.13194">
        <ele>103</ele>
        <time>2013-11-22T09:01:53Z</time>
      </trkpt>
      <trkpt lat="48.77317" lon="2.13205">
        <ele>105.4</ele>
        <time>2013-11-22T09:02:10Z</time>
      </trkpt>
      <trkpt lat="48.77315" lon="2.13204">
        <ele>105.4</ele>
        <time>2013-11-22T09:02:32Z</time>
      </trkpt>
      <trkpt lat="48.7731" lon="2.13212">
        <ele>103.96</ele>
        <time>2013-11-22T09:02:48Z</time>
      </trkpt>
      <trkpt lat="48.77294" lon="2.13219">
        <ele>103.48</ele>
        <time>2013-11-22T09:03:02Z</time>
      </trkpt>
      <trkpt lat="48.77271" lon="2.13211">
        <ele>105.4</ele>
        <time>2013-11-22T09:03:18Z</time>
      </trkpt>
      <trkpt lat="48.77254" lon="2.132">
        <ele>108.29</ele>
        <time>2013-11-22T09:03:36Z</time>
      </trkpt>
      <trkpt lat="48.77252" lon="2.13198">
        <ele>108.29</ele>
        <time>2013-11-22T09:03:39Z</time>
      </trkpt>
      <trkpt lat="48.77248" lon="2.13187">
        <ele>109.25</ele>
        <time>2013-11-22T09:03:44Z</time>
      </trkpt>
      <trkpt lat="48.77248" lon="2.1317">
        <ele>111.65</ele>
        <time>2013-11-22T09:03:51Z</time>
      </trkpt>
      <trkpt lat="48.77247" lon="2.1316">
        <ele>112.13</ele>
        <time>2013-11-22T09:03:55Z</time>
      </trkpt>
      <trkpt lat="48.7723" lon="2.13139">
        <ele>114.53</ele>
        <time>2013-11-22T09:04:11Z</time>
      </trkpt>
      <trkpt lat="48.77215" lon="2.13127">
        <ele>115.01</ele>
        <time>2013-11-22T09:04:25Z</time>
      </trkpt>
      <trkpt lat="48.77198" lon="2.1311">
        <ele>114.53</ele>
        <time>2013-11-22T09:04:42Z</time>
      </trkpt>
      <trkpt lat="48.77183" lon="2.13097">
        <ele>112.13</ele>
        <time>2013-11-22T09:04:57Z</time>
      </trkpt>
      <trkpt lat="48.77174" lon="2.13082">
        <ele>112.13</ele>
        <time>2013-11-22T09:05:12Z</time>
      </trkpt>
      <trkpt lat="48.77167" lon="2.13071">
        <ele>112.13</ele>
        <time>2013-11-22T09:05:20Z</time>
      </trkpt>
      <trkpt lat="48.77148" lon="2.13057">
        <ele>114.53</ele>
        <time>2013-11-22T09:05:36Z</time>
      </trkpt>
      <trkpt lat="48.77132" lon="2.13054">
        <ele>117.42</ele>
        <time>2013-11-22T09:05:51Z</time>
      </trkpt>
      <trkpt lat="48.7713" lon="2.13055">
        <ele>116.94</ele>
        <time>2013-11-22T09:05:53Z</time>
      </trkpt>
      <trkpt lat="48.77132" lon="2.13072">
        <ele>119.34</ele>
        <time>2013-11-22T09:06:04Z</time>
      </trkpt>
      <trkpt lat="48.77138" lon="2.13097">
        <ele>117.9</ele>
        <time>2013-11-22T09:06:17Z</time>
      </trkpt>
      <trkpt lat="48.77137" lon="2.13118">
        <ele>116.46</ele>
        <time>2013-11-22T09:06:33Z</time>
      </trkpt>
      <trkpt lat="48.77137" lon="2.13131">
        <ele>116.46</ele>
        <time>2013-11-22T09:06:41Z</time>
      </trkpt>
      <trkpt lat="48.7714" lon="2.13137">
        <ele>115.98</ele>
        <time>2013-11-22T09:06:44Z</time>
      </trkpt>
      <trkpt lat="48.77145" lon="2.13149">
        <ele>115.5</ele>
        <time>2013-11-22T09:06:49Z</time>
      </trkpt>
      <trkpt lat="48.77152" lon="2.13173">
        <ele>115.98</ele>
        <time>2013-11-22T09:07:02Z</time>
      </trkpt>
      <trkpt lat="48.77162" lon="2.13196">
        <ele>117.9</ele>
        <time>2013-11-22T09:07:15Z</time>
      </trkpt>
      <trkpt lat="48.7717" lon="2.13219">
        <ele>117.42</ele>
        <time>2013-11-22T09:07:27Z</time>
      </trkpt>
      <trkpt lat="48.77169" lon="2.13225">
        <ele>117.42</ele>
        <time>2013-11-22T09:07:32Z</time>
      </trkpt>
      <trkpt lat="48.77159" lon="2.13226">
        <ele>118.86</ele>
        <time>2013-11-22T09:07:38Z</time>
      </trkpt>
      <trkpt lat="48.77149" lon="2.13221">
        <ele>121.74</ele>
        <time>2013-11-22T09:07:48Z</time>
      </trkpt>
      <trkpt lat="48.77141" lon="2.1322">
        <ele>123.19</ele>
        <time>2013-11-22T09:08:02Z</time>
      </trkpt>
      <trkpt lat="48.77141" lon="2.13226">
        <ele>123.19</ele>
        <time>2013-11-22T09:08:06Z</time>
      </trkpt>
      <trkpt lat="48.77143" lon="2.13229">
        <ele>122.71</ele>
        <time>2013-11-22T09:08:09Z</time>
      </trkpt>
      <trkpt lat="48.77143" lon="2.13232">
        <ele>121.26</ele>
        <time>2013-11-22T09:08:27Z</time>
      </trkpt>
      <trkpt lat="48.77143" lon="2.13232">
        <ele>121.26</ele>
        <time>2013-11-22T09:08:58Z</time>
      </trkpt>
      <trkpt lat="48.77143" lon="2.13234">
        <ele>121.26</ele>
        <time>2013-11-22T09:09:18Z</time>
      </trkpt>
      <trkpt lat="48.77114" lon="2.13355">
        <ele>120.78</ele>
        <time>2013-11-22T09:11:38Z</time>
      </trkpt>
      <trkpt lat="48.77113" lon="2.13362">
        <ele>120.3</ele>
        <time>2013-11-22T09:11:41Z</time>
      </trkpt>
      <trkpt lat="48.77106" lon="2.13397">
        <ele>120.3</ele>
        <time>2013-11-22T09:12:04Z</time>
      </trkpt>
      <trkpt lat="48.77093" lon="2.13448">
        <ele>118.38</ele>
        <time>2013-11-22T09:12:26Z</time>
      </trkpt>
      <trkpt lat="48.77081" lon="2.1351">
        <ele>115.5</ele>
        <time>2013-11-22T09:12:43Z</time>
      </trkpt>
      <trkpt lat="48.77075" lon="2.13531">
        <ele>112.13</ele>
        <time>2013-11-22T09:12:57Z</time>
      </trkpt>
      <trkpt lat="48.77075" lon="2.13553">
        <ele>113.57</ele>
        <time>2013-11-22T09:13:12Z</time>
      </trkpt>
      <trkpt lat="48.77075" lon="2.13575">
        <ele>112.61</ele>
        <time>2013-11-22T09:13:26Z</time>
      </trkpt>
      <trkpt lat="48.77076" lon="2.13591">
        <ele>113.57</ele>
        <time>2013-11-22T09:13:39Z</time>
      </trkpt>
      <trkpt lat="48.77075" lon="2.13607">
        <ele>114.53</ele>
        <time>2013-11-22T09:13:52Z</time>
      </trkpt>
      <trkpt lat="48.77072" lon="2.13633">
        <ele>113.09</ele>
        <time>2013-11-22T09:14:08Z</time>
      </trkpt>
      <trkpt lat="48.77065" lon="2.13655">
        <ele>109.73</ele>
        <time>2013-11-22T09:14:22Z</time>
      </trkpt>
      <trkpt lat="48.77056" lon="2.13679">
        <ele>107.81</ele>
        <time>2013-11-22T09:14:42Z</time>
      </trkpt>
      <trkpt lat="48.77048" lon="2.13701">
        <ele>106.84</ele>
        <time>2013-11-22T09:15:08Z</time>
      </trkpt>
      <trkpt lat="48.77042" lon="2.13704">
        <ele>106.84</ele>
        <time>2013-11-22T09:15:25Z</time>
      </trkpt>
      <trkpt lat="48.7702" lon="2.13714">
        <ele>105.4</ele>
        <time>2013-11-22T09:15:40Z</time>
      </trkpt>
      <trkpt lat="48.77006" lon="2.13743">
        <ele>105.4</ele>
        <time>2013-11-22T09:16:03Z</time>
      </trkpt>
      <trkpt lat="48.76976" lon="2.1379">
        <ele>104.44</ele>
        <time>2013-11-22T09:16:27Z</time>
      </trkpt>
      <trkpt lat="48.7696" lon="2.13868">
        <ele>104.44</ele>
        <time>2013-11-22T09:16:51Z</time>
      </trkpt>
      <trkpt lat="48.76965" lon="2.13929">
        <ele>104.44</ele>
        <time>2013-11-22T09:17:15Z</time>
      </trkpt>
      <trkpt lat="48.76969" lon="2.13951">
        <ele>103.96</ele>
        <time>2013-11-22T09:17:26Z</time>
      </trkpt>
      <trkpt lat="48.77069" lon="2.14121">
        <ele>92.9</ele>
        <time>2013-11-22T09:19:23Z</time>
      </trkpt>
      <trkpt lat="48.77109" lon="2.14114">
        <ele>96.75</ele>
        <time>2013-11-22T09:19:33Z</time>
      </trkpt>
      <trkpt lat="48.77122" lon="2.14114">
        <ele>102.04</ele>
        <time>2013-11-22T09:19:46Z</time>
      </trkpt>
      <trkpt lat="48.77123" lon="2.14118">
        <ele>101.08</ele>
        <time>2013-11-22T09:20:00Z</time>
      </trkpt>
      <trkpt lat="48.77123" lon="2.1412">
        <ele>100.6</ele>
        <time>2013-11-22T09:20:01Z</time>
      </trkpt>
      <trkpt lat="48.77117" lon="2.14133">
        <ele>97.23</ele>
        <time>2013-11-22T09:20:18Z</time>
      </trkpt>
      <trkpt lat="48.77114" lon="2.14142">
        <ele>93.87</ele>
        <time>2013-11-22T09:20:26Z</time>
      </trkpt>
      <trkpt lat="48.77102" lon="2.1416">
        <ele>88.1</ele>
        <time>2013-11-22T09:20:41Z</time>
      </trkpt>
      <trkpt lat="48.77094" lon="2.14176">
        <ele>82.81</ele>
        <time>2013-11-22T09:20:52Z</time>
      </trkpt>
      <trkpt lat="48.77089" lon="2.14186">
        <ele>80.41</ele>
        <time>2013-11-22T09:20:56Z</time>
      </trkpt>
      <trkpt lat="48.77078" lon="2.14212">
        <ele>73.68</ele>
        <time>2013-11-22T09:21:09Z</time>
      </trkpt>
      <trkpt lat="48.77068" lon="2.14236">
        <ele>70.31</ele>
        <time>2013-11-22T09:21:21Z</time>
      </trkpt>
      <trkpt lat="48.77053" lon="2.14281">
        <ele>69.35</ele>
        <time>2013-11-22T09:21:43Z</time>
      </trkpt>
      <trkpt lat="48.77047" lon="2.14294">
        <ele>69.35</ele>
        <time>2013-11-22T09:21:49Z</time>
      </trkpt>
      <trkpt lat="48.77035" lon="2.14324">
        <ele>70.31</ele>
        <time>2013-11-22T09:22:05Z</time>
      </trkpt>
      <trkpt lat="48.77019" lon="2.14371">
        <ele>79.45</ele>
        <time>2013-11-22T09:22:24Z</time>
      </trkpt>
      <trkpt lat="48.77007" lon="2.14399">
        <ele>85.21</ele>
        <time>2013-11-22T09:22:40Z</time>
      </trkpt>
      <trkpt lat="48.77" lon="2.14422">
        <ele>88.58</ele>
        <time>2013-11-22T09:22:53Z</time>
      </trkpt>
      <trkpt lat="48.76988" lon="2.14455">
        <ele>92.42</ele>
        <time>2013-11-22T09:23:09Z</time>
      </trkpt>
      <trkpt lat="48.76979" lon="2.14491">
        <ele>94.83</ele>
        <time>2013-11-22T09:23:27Z</time>
      </trkpt>
      <trkpt lat="48.76963" lon="2.14498">
        <ele>95.79</ele>
        <time>2013-11-22T09:23:41Z</time>
      </trkpt>
      <trkpt lat="48.76948" lon="2.14477">
        <ele>96.27</ele>
        <time>2013-11-22T09:23:59Z</time>
      </trkpt>
      <trkpt lat="48.76926" lon="2.14455">
        <ele>98.67</ele>
        <time>2013-11-22T09:24:18Z</time>
      </trkpt>
      <trkpt lat="48.76907" lon="2.14434">
        <ele>99.15</ele>
        <time>2013-11-22T09:24:36Z</time>
      </trkpt>
      <trkpt lat="48.76895" lon="2.1443">
        <ele>98.67</ele>
        <time>2013-11-22T09:24:47Z</time>
      </trkpt>
      <trkpt lat="48.76877" lon="2.14429">
        <ele>99.15</ele>
        <time>2013-11-22T09:25:02Z</time>
      </trkpt>
      <trkpt lat="48.76866" lon="2.14434">
        <ele>101.08</ele>
        <time>2013-11-22T09:25:11Z</time>
      </trkpt>
      <trkpt lat="48.76861" lon="2.14439">
        <ele>102.52</ele>
        <time>2013-11-22T09:25:15Z</time>
      </trkpt>
      <trkpt lat="48.76856" lon="2.14452">
        <ele>103</ele>
        <time>2013-11-22T09:25:29Z</time>
      </trkpt>
      <trkpt lat="48.76854" lon="2.14453">
        <ele>102.52</ele>
        <time>2013-11-22T09:25:31Z</time>
      </trkpt>
      <trkpt lat="48.76839" lon="2.14474">
        <ele>100.11</ele>
        <time>2013-11-22T09:25:46Z</time>
      </trkpt>
      <trkpt lat="48.76832" lon="2.14491">
        <ele>99.63</ele>
        <time>2013-11-22T09:25:55Z</time>
      </trkpt>
      <trkpt lat="48.7683" lon="2.14501">
        <ele>98.19</ele>
        <time>2013-11-22T09:26:13Z</time>
      </trkpt>
      <trkpt lat="48.76824" lon="2.14525">
        <ele>96.27</ele>
        <time>2013-11-22T09:26:29Z</time>
      </trkpt>
      <trkpt lat="48.76815" lon="2.14553">
        <ele>95.79</ele>
        <time>2013-11-22T09:26:44Z</time>
      </trkpt>
      <trkpt lat="48.76809" lon="2.14573">
        <ele>94.83</ele>
        <time>2013-11-22T09:26:56Z</time>
      </trkpt>
      <trkpt lat="48.76808" lon="2.14574">
        <ele>94.83</ele>
        <time>2013-11-22T09:26:57Z</time>
      </trkpt>
      <trkpt lat="48.76801" lon="2.14603">
        <ele>95.31</ele>
        <time>2013-11-22T09:27:11Z</time>
      </trkpt>
      <trkpt lat="48.76791" lon="2.14632">
        <ele>96.75</ele>
        <time>2013-11-22T09:27:27Z</time>
      </trkpt>
      <trkpt lat="48.76785" lon="2.14652">
        <ele>98.67</ele>
        <time>2013-11-22T09:27:41Z</time>
      </trkpt>
      <trkpt lat="48.76776" lon="2.14685">
        <ele>98.67</ele>
        <time>2013-11-22T09:27:56Z</time>
      </trkpt>
      <trkpt lat="48.76767" lon="2.14713">
        <ele>99.15</ele>
        <time>2013-11-22T09:28:11Z</time>
      </trkpt>
      <trkpt lat="48.76757" lon="2.14731">
        <ele>99.15</ele>
        <time>2013-11-22T09:28:21Z</time>
      </trkpt>
      <trkpt lat="48.76752" lon="2.14747">
        <ele>101.08</ele>
        <time>2013-11-22T09:28:28Z</time>
      </trkpt>
      <trkpt lat="48.76737" lon="2.14771">
        <ele>99.15</ele>
        <time>2013-11-22T09:28:45Z</time>
      </trkpt>
      <trkpt lat="48.76725" lon="2.14793">
        <ele>99.15</ele>
        <time>2013-11-22T09:28:59Z</time>
      </trkpt>
      <trkpt lat="48.76709" lon="2.14813">
        <ele>100.6</ele>
        <time>2013-11-22T09:29:14Z</time>
      </trkpt>
      <trkpt lat="48.76692" lon="2.14833">
        <ele>100.11</ele>
        <time>2013-11-22T09:29:28Z</time>
      </trkpt>
      <trkpt lat="48.76682" lon="2.14847">
        <ele>102.04</ele>
        <time>2013-11-22T09:29:40Z</time>
      </trkpt>
      <trkpt lat="48.76664" lon="2.14871">
        <ele>101.08</ele>
        <time>2013-11-22T09:29:56Z</time>
      </trkpt>
      <trkpt lat="48.76648" lon="2.14889">
        <ele>103.48</ele>
        <time>2013-11-22T09:30:11Z</time>
      </trkpt>
      <trkpt lat="48.76626" lon="2.14904">
        <ele>103.48</ele>
        <time>2013-11-22T09:30:26Z</time>
      </trkpt>
      <trkpt lat="48.76617" lon="2.14921">
        <ele>106.36</ele>
        <time>2013-11-22T09:30:40Z</time>
      </trkpt>
      <trkpt lat="48.76609" lon="2.14946">
        <ele>109.73</ele>
        <time>2013-11-22T09:30:55Z</time>
      </trkpt>
      <trkpt lat="48.76606" lon="2.14962">
        <ele>111.65</ele>
        <time>2013-11-22T09:31:04Z</time>
      </trkpt>
      <trkpt lat="48.76603" lon="2.14973">
        <ele>112.13</ele>
        <time>2013-11-22T09:31:12Z</time>
      </trkpt>
      <trkpt lat="48.76608" lon="2.14978">
        <ele>113.09</ele>
        <time>2013-11-22T09:31:16Z</time>
      </trkpt>
      <trkpt lat="48.76624" lon="2.14988">
        <ele>113.57</ele>
        <time>2013-11-22T09:31:28Z</time>
      </trkpt>
      <trkpt lat="48.76642" lon="2.14999">
        <ele>111.17</ele>
        <time>2013-11-22T09:31:41Z</time>
      </trkpt>
      <trkpt lat="48.76661" lon="2.15009">
        <ele>110.69</ele>
        <time>2013-11-22T09:31:53Z</time>
      </trkpt>
      <trkpt lat="48.76669" lon="2.15013">
        <ele>109.73</ele>
        <time>2013-11-22T09:32:01Z</time>
      </trkpt>
      <trkpt lat="48.76673" lon="2.15017">
        <ele>109.73</ele>
        <time>2013-11-22T09:32:07Z</time>
      </trkpt>
      <trkpt lat="48.7668" lon="2.15019">
        <ele>111.17</ele>
        <time>2013-11-22T09:32:18Z</time>
      </trkpt>
      <trkpt lat="48.76686" lon="2.15017">
        <ele>110.21</ele>
        <time>2013-11-22T09:32:22Z</time>
      </trkpt>
      <trkpt lat="48.76693" lon="2.15024">
        <ele>108.29</ele>
        <time>2013-11-22T09:32:28Z</time>
      </trkpt>
      <trkpt lat="48.76702" lon="2.1503">
        <ele>106.84</ele>
        <time>2013-11-22T09:32:33Z</time>
      </trkpt>
      <trkpt lat="48.76718" lon="2.1504">
        <ele>104.44</ele>
        <time>2013-11-22T09:32:46Z</time>
      </trkpt>
      <trkpt lat="48.76734" lon="2.15051">
        <ele>103.96</ele>
        <time>2013-11-22T09:32:59Z</time>
      </trkpt>
      <trkpt lat="48.76752" lon="2.1506">
        <ele>105.4</ele>
        <time>2013-11-22T09:33:11Z</time>
      </trkpt>
      <trkpt lat="48.76757" lon="2.15069">
        <ele>106.36</ele>
        <time>2013-11-22T09:33:18Z</time>
      </trkpt>
      <trkpt lat="48.76758" lon="2.15095">
        <ele>104.44</ele>
        <time>2013-11-22T09:33:33Z</time>
      </trkpt>
      <trkpt lat="48.76758" lon="2.15103">
        <ele>103.48</ele>
        <time>2013-11-22T09:33:38Z</time>
      </trkpt>
      <trkpt lat="48.76753" lon="2.15143">
        <ele>98.67</ele>
        <time>2013-11-22T09:33:59Z</time>
      </trkpt>
      <trkpt lat="48.76742" lon="2.15207">
        <ele>87.14</ele>
        <time>2013-11-22T09:36:50Z</time>
      </trkpt>
      <trkpt lat="48.76729" lon="2.15234">
        <ele>85.69</ele>
        <time>2013-11-22T09:37:05Z</time>
      </trkpt>
      <trkpt lat="48.76723" lon="2.15263">
        <ele>85.69</ele>
        <time>2013-11-22T09:37:19Z</time>
      </trkpt>
      <trkpt lat="48.76718" lon="2.15293">
        <ele>90.02</ele>
        <time>2013-11-22T09:37:32Z</time>
      </trkpt>
      <trkpt lat="48.76712" lon="2.15319">
        <ele>90.02</ele>
        <time>2013-11-22T09:37:43Z</time>
      </trkpt>
      <trkpt lat="48.76704" lon="2.1535">
        <ele>89.06</ele>
        <time>2013-11-22T09:37:58Z</time>
      </trkpt>
      <trkpt lat="48.76703" lon="2.15355">
        <ele>89.06</ele>
        <time>2013-11-22T09:38:02Z</time>
      </trkpt>
      <trkpt lat="48.76692" lon="2.15378">
        <ele>87.62</ele>
        <time>2013-11-22T09:38:15Z</time>
      </trkpt>
      <trkpt lat="48.76691" lon="2.1538">
        <ele>87.62</ele>
        <time>2013-11-22T09:38:17Z</time>
      </trkpt>
      <trkpt lat="48.76675" lon="2.15405">
        <ele>87.14</ele>
        <time>2013-11-22T09:38:33Z</time>
      </trkpt>
      <trkpt lat="48.76656" lon="2.15431">
        <ele>88.1</ele>
        <time>2013-11-22T09:38:50Z</time>
      </trkpt>
      <trkpt lat="48.76646" lon="2.15461">
        <ele>87.14</ele>
        <time>2013-11-22T09:39:06Z</time>
      </trkpt>
      <trkpt lat="48.76646" lon="2.15489">
        <ele>89.54</ele>
        <time>2013-11-22T09:39:20Z</time>
      </trkpt>
      <trkpt lat="48.76652" lon="2.15518">
        <ele>90.98</ele>
        <time>2013-11-22T09:39:34Z</time>
      </trkpt>
      <trkpt lat="48.76664" lon="2.15532">
        <ele>89.54</ele>
        <time>2013-11-22T09:39:48Z</time>
      </trkpt>
      <trkpt lat="48.76682" lon="2.15546">
        <ele>88.58</ele>
        <time>2013-11-22T09:40:02Z</time>
      </trkpt>
      <trkpt lat="48.76694" lon="2.15558">
        <ele>87.62</ele>
        <time>2013-11-22T09:40:15Z</time>
      </trkpt>
      <trkpt lat="48.76709" lon="2.15562">
        <ele>88.58</ele>
        <time>2013-11-22T09:40:25Z</time>
      </trkpt>
      <trkpt lat="48.76712" lon="2.15571">
        <ele>88.1</ele>
        <time>2013-11-22T09:40:30Z</time>
      </trkpt>
      <trkpt lat="48.76714" lon="2.15581">
        <ele>87.14</ele>
        <time>2013-11-22T09:40:34Z</time>
      </trkpt>
      <trkpt lat="48.76711" lon="2.15607">
        <ele>86.66</ele>
        <time>2013-11-22T09:40:47Z</time>
      </trkpt>
      <trkpt lat="48.76702" lon="2.15631">
        <ele>87.62</ele>
        <time>2013-11-22T09:40:59Z</time>
      </trkpt>
      <trkpt lat="48.767" lon="2.1565">
        <ele>87.62</ele>
        <time>2013-11-22T09:41:09Z</time>
      </trkpt>
      <trkpt lat="48.767" lon="2.15661">
        <ele>87.14</ele>
        <time>2013-11-22T09:41:13Z</time>
      </trkpt>
      <trkpt lat="48.76705" lon="2.15692">
        <ele>86.66</ele>
        <time>2013-11-22T09:41:27Z</time>
      </trkpt>
      <trkpt lat="48.76704" lon="2.15715">
        <ele>86.66</ele>
        <time>2013-11-22T09:41:37Z</time>
      </trkpt>
      <trkpt lat="48.76701" lon="2.15732">
        <ele>87.14</ele>
        <time>2013-11-22T09:41:44Z</time>
      </trkpt>
      <trkpt lat="48.76698" lon="2.1574">
        <ele>88.1</ele>
        <time>2013-11-22T09:41:48Z</time>
      </trkpt>
      <trkpt lat="48.76692" lon="2.15767">
        <ele>90.02</ele>
        <time>2013-11-22T09:42:04Z</time>
      </trkpt>
      <trkpt lat="48.76682" lon="2.15797">
        <ele>89.06</ele>
        <time>2013-11-22T09:42:20Z</time>
      </trkpt>
      <trkpt lat="48.76671" lon="2.15825">
        <ele>88.58</ele>
        <time>2013-11-22T09:42:33Z</time>
      </trkpt>
      <trkpt lat="48.76662" lon="2.15849">
        <ele>90.98</ele>
        <time>2013-11-22T09:42:46Z</time>
      </trkpt>
      <trkpt lat="48.76656" lon="2.1586">
        <ele>90.98</ele>
        <time>2013-11-22T09:42:55Z</time>
      </trkpt>
      <trkpt lat="48.76647" lon="2.15873">
        <ele>90.98</ele>
        <time>2013-11-22T09:43:02Z</time>
      </trkpt>
      <trkpt lat="48.76634" lon="2.15889">
        <ele>90.02</ele>
        <time>2013-11-22T09:43:15Z</time>
      </trkpt>
      <trkpt lat="48.76621" lon="2.159">
        <ele>89.54</ele>
        <time>2013-11-22T09:43:26Z</time>
      </trkpt>
      <trkpt lat="48.76604" lon="2.1592">
        <ele>89.06</ele>
        <time>2013-11-22T09:43:42Z</time>
      </trkpt>
      <trkpt lat="48.76597" lon="2.1593">
        <ele>90.02</ele>
        <time>2013-11-22T09:43:48Z</time>
      </trkpt>
      <trkpt lat="48.76594" lon="2.15933">
        <ele>90.02</ele>
        <time>2013-11-22T09:43:50Z</time>
      </trkpt>
      <trkpt lat="48.76588" lon="2.15931">
        <ele>90.5</ele>
        <time>2013-11-22T09:43:54Z</time>
      </trkpt>
      <trkpt lat="48.76576" lon="2.15905">
        <ele>93.39</ele>
        <time>2013-11-22T09:44:11Z</time>
      </trkpt>
      <trkpt lat="48.76575" lon="2.15903">
        <ele>93.39</ele>
        <time>2013-11-22T09:44:12Z</time>
      </trkpt>
      <trkpt lat="48.76566" lon="2.15906">
        <ele>92.9</ele>
        <time>2013-11-22T09:44:18Z</time>
      </trkpt>
      <trkpt lat="48.76553" lon="2.15923">
        <ele>92.9</ele>
        <time>2013-11-22T09:44:33Z</time>
      </trkpt>
      <trkpt lat="48.76533" lon="2.15956">
        <ele>89.06</ele>
        <time>2013-11-22T09:44:55Z</time>
      </trkpt>
      <trkpt lat="48.76519" lon="2.15977">
        <ele>89.06</ele>
        <time>2013-11-22T09:45:06Z</time>
      </trkpt>
      <trkpt lat="48.76516" lon="2.15983">
        <ele>89.06</ele>
        <time>2013-11-22T09:45:11Z</time>
      </trkpt>
      <trkpt lat="48.76517" lon="2.15998">
        <ele>90.02</ele>
        <time>2013-11-22T09:45:18Z</time>
      </trkpt>
      <trkpt lat="48.76529" lon="2.16024">
        <ele>87.62</ele>
        <time>2013-11-22T09:45:33Z</time>
      </trkpt>
      <trkpt lat="48.76538" lon="2.16054">
        <ele>85.69</ele>
        <time>2013-11-22T09:45:46Z</time>
      </trkpt>
      <trkpt lat="48.76539" lon="2.16055">
        <ele>84.73</ele>
        <time>2013-11-22T09:45:56Z</time>
      </trkpt>
      <trkpt lat="48.76539" lon="2.16054">
        <ele>85.21</ele>
        <time>2013-11-22T09:46:10Z</time>
      </trkpt>
      <trkpt lat="48.7654" lon="2.16059">
        <ele>85.21</ele>
        <time>2013-11-22T09:46:19Z</time>
      </trkpt>
      <trkpt lat="48.76528" lon="2.16077">
        <ele>83.29</ele>
        <time>2013-11-22T09:46:34Z</time>
      </trkpt>
      <trkpt lat="48.76527" lon="2.16079">
        <ele>83.29</ele>
        <time>2013-11-22T09:46:35Z</time>
      </trkpt>
      <trkpt lat="48.76523" lon="2.16094">
        <ele>84.73</ele>
        <time>2013-11-22T09:46:47Z</time>
      </trkpt>
      <trkpt lat="48.76515" lon="2.16104">
        <ele>86.18</ele>
        <time>2013-11-22T09:46:54Z</time>
      </trkpt>
      <trkpt lat="48.76521" lon="2.16133">
        <ele>85.69</ele>
        <time>2013-11-22T09:47:06Z</time>
      </trkpt>
      <trkpt lat="48.76518" lon="2.16159">
        <ele>85.69</ele>
        <time>2013-11-22T09:47:19Z</time>
      </trkpt>
      <trkpt lat="48.76518" lon="2.16169">
        <ele>85.21</ele>
        <time>2013-11-22T09:47:27Z</time>
      </trkpt>
      <trkpt lat="48.76518" lon="2.16202">
        <ele>86.18</ele>
        <time>2013-11-22T09:47:41Z</time>
      </trkpt>
      <trkpt lat="48.76518" lon="2.16223">
        <ele>87.62</ele>
        <time>2013-11-22T09:47:53Z</time>
      </trkpt>
      <trkpt lat="48.7652" lon="2.16255">
        <ele>89.06</ele>
        <time>2013-11-22T09:48:09Z</time>
      </trkpt>
      <trkpt lat="48.76517" lon="2.1628">
        <ele>89.06</ele>
        <time>2013-11-22T09:48:19Z</time>
      </trkpt>
      <trkpt lat="48.76511" lon="2.16308">
        <ele>87.14</ele>
        <time>2013-11-22T09:48:35Z</time>
      </trkpt>
      <trkpt lat="48.76497" lon="2.16335">
        <ele>85.21</ele>
        <time>2013-11-22T09:48:52Z</time>
      </trkpt>
      <trkpt lat="48.76497" lon="2.16346">
        <ele>82.33</ele>
        <time>2013-11-22T09:49:05Z</time>
      </trkpt>
      <trkpt lat="48.76497" lon="2.16353">
        <ele>82.81</ele>
        <time>2013-11-22T09:49:27Z</time>
      </trkpt>
      <trkpt lat="48.76495" lon="2.16355">
        <ele>82.33</ele>
        <time>2013-11-22T09:49:50Z</time>
      </trkpt>
      <trkpt lat="48.76494" lon="2.16353">
        <ele>81.85</ele>
        <time>2013-11-22T09:50:16Z</time>
      </trkpt>
      <trkpt lat="48.76494" lon="2.16354">
        <ele>81.37</ele>
        <time>2013-11-22T09:50:33Z</time>
      </trkpt>
      <trkpt lat="48.76494" lon="2.16365">
        <ele>77.04</ele>
        <time>2013-11-22T09:50:46Z</time>
      </trkpt>
      <trkpt lat="48.76488" lon="2.1637">
        <ele>76.08</ele>
        <time>2013-11-22T09:50:59Z</time>
      </trkpt>
      <trkpt lat="48.76485" lon="2.16372">
        <ele>76.08</ele>
        <time>2013-11-22T09:51:13Z</time>
      </trkpt>
      <trkpt lat="48.76483" lon="2.16382">
        <ele>77.04</ele>
        <time>2013-11-22T09:51:26Z</time>
      </trkpt>
      <trkpt lat="48.76483" lon="2.16384">
        <ele>77.52</ele>
        <time>2013-11-22T09:51:42Z</time>
      </trkpt>
    </trkseg>
  </trk>
</gpx>